Cleveland Hopkins International Airport
KCLE : now visible

Airfield :











YOU CAN JOIN US ON...

 
LOGIN :

Register | Disclaimer

   EN    FR    IT 

 









Legend :    VFR   Marginal VFR   IFR   Intensive IFR   Very Intensive IFR
Visi :
Ceiling :
>= 8 km
>= 3000ft
5 to 8 km
1000 to 3000 ft
1500m to 5 km
500 to 1000 ft
800 to 1500m
200 to 500 ft
< 800m
< 200 ft
Symbols :   Thunderstorms  Fog  Heavy snow  Heavy precipitations  Wind > 20 kt






- Airport Elevation : 791 ft
- IATA code : CLE


KCLE - Cleveland Hopkins International

CURRENT METAR :
  • 250651Z 13004KT 10SM OVC030 07/04 A3015 RMK AO2 SLP229 T00720039 $

EXPIRED METARs :
  • 250606Z 09003KT 10SM SCT023 OVC032 08/04 A3015 RMK AO2 T00780039 $
  • 250551Z 00000KT 10SM FEW022 BKN028 OVC034 08/04 A3016 RMK AO2 SLP232 T00780039 10083 20072 58005 $
  • 250451Z 00000KT 10SM BKN026 OVC036 08/04 A3017 RMK AO2 SLP238 T00780039 401060072 $

TAF KCLE
Valid from the 25 at 06:00 until the 26 at 12:00 UTC


250532Z 2506/2612 08004KT P6SM BKN025
TEMPO 2506/2510 BKN035
FM251000 05007KT P6SM SCT030
FM260300 08006KT P6SM OVC025
KZOB FIR / North America



MET'MAP, your aeronautical weather chart ! - Copyright ORBIFLY December 2007 - Disclaimer

ORBIFLY MET'MAP TEAM :

Programming & Development : Alexandra Zaïnal
Concept & original design : Baudouin d'Aumeries
Assistance for programming : Marc-Olivier Méhu
Technical & hardware support : Manuel Goepfert

Contact : metmap@orbifly.com




SOURCES & CREDITS :

   NOAA       Earth
Advisory